Time;durP1;ratioP1;P1;durP2;ratioP2;P2;SDS_P1;SDS_P2;PMS_P1;PMS_P2;Temp;Humidity;BMP_temperature;BMP_pressure;BME280_temperature;BME280_humidity;BME280_pressure;Samples;Min_cycle;Max_cycle;Signal;HPM_P1;HPM_P2
2022/10/20 00:01:23;;;;;;;6.35;2.60;;;6.20;99.90;;;;;;5060272;28;20031;-80
2022/10/20 00:03:49;;;;;;;11.50;2.95;;;6.10;99.90;;;;;;5064266;28;20057;-80
2022/10/20 00:06:21;;;;;;;7.95;2.90;;;6.10;99.90;;;;;;5063662;28;20087;-80
2022/10/20 00:08:47;;;;;;;6.97;3.00;;;6.10;99.90;;;;;;5063560;28;20021;-79
2022/10/20 00:11:15;;;;;;;4.45;3.20;;;6.10;99.90;;;;;;5063477;28;20025;-80
2022/10/20 00:13:43;;;;;;;5.05;3.00;;;6.10;99.90;;;;;;5066043;28;20047;-80
2022/10/20 00:16:09;;;;;;;6.20;3.22;;;6.00;99.90;;;;;;5067456;28;20036;-81
2022/10/20 00:18:35;;;;;;;8.68;3.63;;;5.90;99.90;;;;;;5067435;28;20392;-80
2022/10/20 00:21:08;;;;;;;5.80;3.38;;;5.90;99.90;;;;;;5064806;28;20017;-80
2022/10/20 00:23:35;;;;;;;6.88;3.28;;;5.80;99.90;;;;;;5063487;28;20056;-80
2022/10/20 00:26:06;;;;;;;3.85;2.85;;;5.70;99.90;;;;;;5060724;28;20531;-80
2022/10/20 00:28:33;;;;;;;4.53;2.65;;;5.70;99.90;;;;;;5061301;28;20452;-80
2022/10/20 00:30:58;;;;;;;5.00;2.70;;;5.60;99.90;;;;;;5061781;28;20021;-79
2022/10/20 00:33:25;;;;;;;8.75;3.22;;;5.70;99.90;;;;;;5061120;28;20029;-79
2022/10/20 00:35:50;;;;;;;7.80;2.72;;;5.70;99.90;;;;;;5061268;28;20033;-79
2022/10/20 00:38:16;;;;;;;6.03;3.03;;;5.70;99.90;;;;;;5059216;28;20072;-80
2022/10/20 00:40:42;;;;;;;7.43;3.15;;;5.60;99.90;;;;;;5060921;28;20035;-79
2022/10/20 00:43:15;;;;;;;8.60;3.72;;;5.60;99.90;;;;;;5060295;28;20100;-80
2022/10/20 00:45:42;;;;;;;6.10;3.30;;;5.50;99.90;;;;;;5060427;28;20056;-79
2022/10/20 00:48:14;;;;;;;5.55;3.20;;;5.50;99.90;;;;;;5060507;28;20028;-80
2022/10/20 00:50:45;;;;;;;9.65;3.45;;;5.50;99.90;;;;;;5060712;28;20492;-79
2022/10/20 00:53:11;;;;;;;15.50;3.80;;;5.40;99.90;;;;;;5061397;28;20025;-80
2022/10/20 00:55:41;;;;;;;5.90;3.60;;;5.40;99.90;;;;;;5060974;28;20056;-79
2022/10/20 00:58:07;;;;;;;5.80;3.38;;;5.40;99.90;;;;;;5062178;28;20045;-79
2022/10/20 01:00:36;;;;;;;8.80;4.72;;;5.30;99.90;;;;;;5058797;28;20029;-79
2022/10/20 01:03:03;;;;;;;9.90;3.30;;;5.30;99.90;;;;;;5059436;28;20028;-79
2022/10/20 01:05:29;;;;;;;6.40;3.15;;;5.20;99.90;;;;;;5058628;28;20068;-79
2022/10/20 01:07:55;;;;;;;6.60;3.22;;;5.20;99.90;;;;;;5059527;28;20051;-79
2022/10/20 01:10:24;;;;;;;8.27;3.10;;;5.10;99.90;;;;;;5058851;28;20025;-79
2022/10/20 01:12:49;;;;;;;;;;;5.10;99.90;;;;;;5059133;28;20029;-79
2022/10/20 01:15:31;;;;;;;5.00;2.95;;;5.00;99.90;;;;;;5058211;28;20359;-80
2022/10/20 01:18:28;;;;;;;3.20;2.90;;;5.20;99.90;;;;;;5058878;28;20025;-80
2022/10/20 01:21:35;;;;;;;10.77;2.95;;;5.00;99.90;;;;;;5058113;28;20053;-79
2022/10/20 01:24:19;;;;;;;4.00;3.05;;;4.90;99.90;;;;;;4996317;28;20037;-80
2022/10/20 01:27:06;;;;;;;7.03;3.22;;;4.90;99.90;;;;;;5049989;28;20045;-79
2022/10/20 01:29:43;;;;;;;4.80;3.35;;;4.90;99.90;;;;;;5058913;28;20029;-79
2022/10/20 01:32:21;;;;;;;4.75;3.00;;;4.90;99.90;;;;;;5058390;28;20024;-79
2022/10/20 01:35:25;;;;;;;8.05;3.20;;;4.90;99.90;;;;;;5058307;28;20029;-79
2022/10/20 01:38:03;;;;;;;9.15;3.28;;;4.90;99.90;;;;;;5058844;28;20037;-79
2022/10/20 01:40:35;;;;;;;6.28;3.13;;;4.80;99.90;;;;;;5058574;28;20024;-79
2022/10/20 01:43:04;;;;;;;7.78;4.40;;;4.80;99.90;;;;;;5056710;28;20465;-79
2022/10/20 01:45:33;;;;;;;4.30;3.20;;;4.70;99.90;;;;;;5056308;28;20032;-79
2022/10/20 01:48:01;;;;;;;;;;;4.80;99.90;;;;;;5056590;28;20094;-79
2022/10/20 01:50:28;;;;;;;9.63;3.88;;;4.70;99.90;;;;;;5056904;28;19905;-80
2022/10/20 01:52:58;;;;;;;4.38;3.05;;;4.60;99.90;;;;;;5056552;28;20094;-79
2022/10/20 01:55:23;;;;;;;4.13;3.10;;;4.70;99.90;;;;;;5058111;28;20037;-80
2022/10/20 01:57:52;;;;;;;6.53;3.30;;;4.70;99.90;;;;;;5057564;28;20049;-79
2022/10/20 02:00:18;;;;;;;8.50;3.47;;;4.60;99.90;;;;;;5057612;28;20020;-79
2022/10/20 02:03:08;;;;;;;7.38;4.72;;;4.60;99.90;;;;;;5058291;28;20155;-80
2022/10/20 02:05:40;;;;;;;5.65;3.33;;;4.60;99.90;;;;;;5060483;28;20120;-80
2022/10/20 02:08:11;;;;;;;7.78;3.22;;;4.60;99.90;;;;;;5058943;28;20029;-79
2022/10/20 02:10:49;;;;;;;6.88;3.28;;;4.50;99.90;;;;;;5061196;28;20052;-80
2022/10/20 02:13:17;;;;;;;6.75;3.60;;;4.40;99.90;;;;;;5061851;28;20052;-80
2022/10/20 02:15:51;;;;;;;8.20;3.70;;;4.40;99.90;;;;;;5059318;28;20096;-80
2022/10/20 02:18:23;;;;;;;6.63;3.05;;;4.30;99.90;;;;;;5062059;28;20060;-80
2022/10/20 02:20:52;;;;;;;9.80;3.58;;;4.30;99.90;;;;;;5064239;28;20032;-81
2022/10/20 02:23:18;;;;;;;6.95;4.18;;;4.30;99.90;;;;;;5069236;28;20021;-80
2022/10/20 02:25:48;;;;;;;6.40;3.20;;;4.20;99.90;;;;;;5071046;28;20028;-80
2022/10/20 02:28:15;;;;;;;5.72;3.30;;;4.20;99.90;;;;;;5064701;28;20541;-80
2022/10/20 02:30:42;;;;;;;6.18;3.97;;;4.10;99.90;;;;;;5063747;28;20029;-80
2022/10/20 02:33:09;;;;;;;7.00;3.60;;;4.10;99.90;;;;;;5065091;28;20028;-80
2022/10/20 02:35:34;;;;;;;10.25;4.05;;;4.10;99.90;;;;;;5064788;28;20035;-80
2022/10/20 02:38:00;;;;;;;5.13;3.65;;;4.00;99.90;;;;;;5067593;28;20025;-80
2022/10/20 02:40:26;;;;;;;8.65;3.33;;;4.00;99.90;;;;;;5066306;28;20021;-80
2022/10/20 02:42:52;;;;;;;9.73;3.85;;;4.00;99.90;;;;;;5065860;28;20035;-80
2022/10/20 02:45:18;;;;;;;12.02;3.55;;;4.00;99.90;;;;;;5062951;28;20057;-80
2022/10/20 02:47:44;;;;;;;6.38;4.20;;;4.00;99.90;;;;;;5063021;28;20028;-81
2022/10/20 02:50:09;;;;;;;11.00;4.82;;;4.00;99.90;;;;;;5063857;28;20084;-81
2022/10/20 02:52:36;;;;;;;6.93;4.03;;;3.90;99.90;;;;;;5063100;28;20029;-81
2022/10/20 02:55:03;;;;;;;4.55;3.58;;;3.90;99.90;;;;;;5062799;28;20032;-81
2022/10/20 02:57:28;;;;;;;7.63;3.50;;;3.80;99.90;;;;;;5062796;28;20053;-80
2022/10/20 02:59:54;;;;;;;7.45;4.05;;;3.80;99.90;;;;;;5061244;28;20052;-80
2022/10/20 03:02:20;;;;;;;5.88;3.90;;;3.80;99.90;;;;;;5063499;28;20036;-80
2022/10/20 03:04:45;;;;;;;6.03;4.18;;;3.80;99.90;;;;;;5061008;28;20057;-80
2022/10/20 03:07:11;;;;;;;6.05;3.60;;;3.80;99.90;;;;;;5059248;28;20025;-80
2022/10/20 03:09:36;;;;;;;7.78;3.92;;;3.70;99.90;;;;;;5060288;28;20025;-80
2022/10/20 03:12:02;;;;;;;6.75;4.10;;;3.80;99.90;;;;;;5060760;28;20041;-80
2022/10/20 03:14:28;;;;;;;6.05;3.50;;;3.90;99.90;;;;;;5061822;28;20431;-81
2022/10/20 03:16:54;;;;;;;9.10;4.40;;;3.80;99.90;;;;;;5060466;28;20036;-79
2022/10/20 03:19:19;;;;;;;5.22;3.47;;;3.80;99.90;;;;;;5062764;28;20104;-81
2022/10/20 03:21:45;;;;;;;6.50;3.67;;;3.80;99.90;;;;;;5062726;28;20032;-81
2022/10/20 03:24:11;;;;;;;8.35;3.80;;;3.70;99.90;;;;;;5062184;28;20025;-81
2022/10/20 03:26:37;;;;;;;6.70;4.13;;;3.70;99.90;;;;;;5061504;28;20056;-81
2022/10/20 03:29:03;;;;;;;5.80;3.67;;;3.70;99.90;;;;;;5059721;28;20028;-81
2022/10/20 03:31:29;;;;;;;7.28;3.80;;;3.60;99.90;;;;;;5059838;28;20468;-80
2022/10/20 03:33:54;;;;;;;6.07;3.72;;;3.60;99.90;;;;;;5059871;28;20377;-80
2022/10/20 03:36:20;;;;;;;6.78;3.65;;;3.60;99.90;;;;;;5058675;28;20370;-80
2022/10/20 03:38:46;;;;;;;9.25;3.80;;;3.70;99.90;;;;;;5059911;28;20166;-81
2022/10/20 03:41:11;;;;;;;12.95;4.30;;;3.60;99.90;;;;;;5059773;28;20027;-81
2022/10/20 03:43:40;;;;;;;8.20;4.70;;;3.60;99.90;;;;;;5060233;28;20064;-81
2022/10/20 03:46:09;;;;;;;6.35;3.67;;;3.60;99.90;;;;;;5059899;28;20068;-81
2022/10/20 03:48:35;;;;;;;7.90;4.05;;;3.60;99.90;;;;;;5058536;28;20089;-81
2022/10/20 03:51:02;;;;;;;5.78;4.00;;;3.60;99.90;;;;;;5062341;28;20040;-81
2022/10/20 03:53:28;;;;;;;9.02;3.80;;;3.60;99.90;;;;;;5063169;28;20017;-80
2022/10/20 03:55:54;;;;;;;10.30;4.05;;;3.50;99.90;;;;;;5060837;28;20056;-80
2022/10/20 03:58:20;;;;;;;8.85;5.03;;;3.50;99.90;;;;;;5062654;28;20057;-81
2022/10/20 04:00:46;;;;;;;7.75;4.07;;;3.50;99.90;;;;;;5061965;28;20033;-80
2022/10/20 04:03:12;;;;;;;8.15;4.20;;;3.40;99.90;;;;;;5062972;28;20504;-81
2022/10/20 04:05:38;;;;;;;6.38;3.97;;;3.40;99.90;;;;;;5065255;28;20072;-80
2022/10/20 04:08:04;;;;;;;7.40;3.95;;;3.40;99.90;;;;;;5063238;28;20036;-81
2022/10/20 04:10:30;;;;;;;5.30;3.92;;;3.40;99.90;;;;;;5064776;28;20037;-74
2022/10/20 04:15:31;;;;;;;7.95;4.40;;;3.30;99.90;;;;;;5265318;22;20080;-80
2022/10/20 04:17:56;;;;;;;9.52;3.70;;;3.30;99.90;;;;;;5069019;28;20095;-80
2022/10/20 04:20:22;;;;;;;7.18;4.40;;;3.30;99.90;;;;;;5063611;28;20051;-81
2022/10/20 04:22:48;;;;;;;9.48;3.92;;;3.30;99.90;;;;;;5073760;28;20032;-78
2022/10/20 04:25:14;;;;;;;9.90;3.95;;;3.30;99.90;;;;;;5123212;22;20057;-83
2022/10/20 04:27:40;;;;;;;8.88;4.13;;;3.30;99.90;;;;;;5328196;22;20057;-83
2022/10/20 04:30:07;;;;;;;5.88;4.20;;;3.30;99.90;;;;;;5063519;28;20033;-80
2022/10/20 04:32:32;;;;;;;12.63;4.20;;;3.30;99.90;;;;;;5067260;28;20055;-80
2022/10/20 04:34:58;;;;;;;7.47;3.90;;;3.30;99.90;;;;;;5070247;28;20021;-81
2022/10/20 04:37:24;;;;;;;7.93;4.10;;;3.30;99.90;;;;;;5066271;28;20025;-81
2022/10/20 04:39:50;;;;;;;8.13;4.22;;;3.30;99.90;;;;;;5067332;28;20021;-80
2022/10/20 04:42:16;;;;;;;6.43;3.90;;;3.30;99.90;;;;;;5069137;28;20028;-80
2022/10/20 04:44:42;;;;;;;8.38;4.20;;;3.30;99.90;;;;;;5715646;22;20052;-79
2022/10/20 04:47:08;;;;;;;7.13;3.70;;;3.30;99.90;;;;;;5204475;22;20057;-79
2022/10/20 04:49:34;;;;;;;13.57;5.35;;;3.30;99.90;;;;;;5410984;22;20032;-81
2022/10/20 04:51:59;;;;;;;17.88;4.15;;;2.80;99.90;;;;;;5087312;22;20060;-81
2022/10/20 04:54:25;;;;;;;16.70;4.65;;;1.80;99.90;;;;;;5070579;28;20029;-81
2022/10/20 04:56:51;;;;;;;9.82;4.35;;;3.50;99.90;;;;;;5064484;28;20045;-79
2022/10/20 04:59:17;;;;;;;9.95;4.15;;;3.10;99.90;;;;;;5064647;28;20021;-82
2022/10/20 05:01:42;;;;;;;8.10;4.15;;;3.10;99.90;;;;;;5067885;28;20047;-80
2022/10/20 05:04:09;;;;;;;8.32;4.00;;;3.00;99.90;;;;;;5058736;28;20025;-80
2022/10/20 05:06:35;;;;;;;9.20;3.83;;;3.50;99.90;;;;;;5059214;28;20025;-80
2022/10/20 05:09:03;;;;;;;7.63;4.70;;;3.10;99.90;;;;;;5059384;28;20056;-81
2022/10/20 05:11:30;;;;;;;9.98;4.20;;;3.00;99.90;;;;;;5056576;28;20091;-79
2022/10/20 05:13:56;;;;;;;12.85;5.15;;;3.00;99.90;;;;;;5055887;28;20025;-79
2022/10/20 05:16:22;;;;;;;7.80;4.18;;;3.00;99.90;;;;;;5058793;28;20071;-79
2022/10/20 05:18:48;;;;;;;16.40;4.35;;;3.00;99.90;;;;;;5059139;28;20029;-81
2022/10/20 05:21:16;;;;;;;9.73;4.65;;;3.00;99.90;;;;;;5064910;28;20021;-81
2022/10/20 05:23:42;;;;;;;7.67;4.47;;;3.00;99.90;;;;;;5060261;28;20021;-80
2022/10/20 05:26:11;;;;;;;11.05;4.85;;;3.00;99.90;;;;;;5059367;28;20024;-81
2022/10/20 05:28:37;;;;;;;11.68;4.47;;;3.10;99.90;;;;;;5063214;28;20032;-82
2022/10/20 05:31:05;;;;;;;9.40;4.40;;;3.10;99.90;;;;;;5062002;28;20553;-81
2022/10/20 05:33:31;;;;;;;6.63;4.53;;;3.10;99.90;;;;;;5062929;28;20087;-80
2022/10/20 05:35:57;;;;;;;10.35;4.45;;;3.10;99.90;;;;;;5067494;28;20037;-82
2022/10/20 05:38:22;;;;;;;5.20;4.15;;;3.20;99.90;;;;;;5069480;28;20087;-82
2022/10/20 05:40:48;;;;;;;7.90;5.80;;;3.10;99.90;;;;;;5070024;28;20048;-81
2022/10/20 05:43:14;;;;;;;6.40;4.38;;;3.20;99.90;;;;;;5071417;28;20511;-81
2022/10/20 05:45:40;;;;;;;6.85;4.50;;;3.20;99.90;;;;;;5072958;28;20021;-82
2022/10/20 05:48:05;;;;;;;8.73;5.05;;;3.10;99.90;;;;;;5078722;28;20024;-82
2022/10/20 06:07:53;;;;;;;5.53;4.03;;;3.40;99.90;;;;;;5554787;22;20034;-82
2022/10/20 06:10:19;;;;;;;10.00;5.00;;;3.30;99.90;;;;;;5087635;22;20064;-82
2022/10/20 06:33:31;;;;;;;10.75;4.60;;;4.10;99.90;;;;;;5659012;22;20065;-83
2022/10/20 06:36:02;;;;;;;5.78;4.03;;;4.20;99.90;;;;;;5038556;28;20037;-83
2022/10/20 06:38:28;;;;;;;10.98;4.18;;;4.40;99.90;;;;;;5034102;28;20033;-82
2022/10/20 06:40:54;;;;;;;14.48;6.32;;;4.70;99.90;;;;;;5035559;28;20030;-82
2022/10/20 06:43:19;;;;;;;11.35;3.90;;;4.90;99.90;;;;;;5015126;28;20022;-82
2022/10/20 06:46:06;;;;;;;7.80;3.72;;;5.10;99.90;;;;;;5009992;28;20026;-81
2022/10/20 06:48:34;;;;;;;16.35;4.63;;;5.30;99.90;;;;;;5024316;28;20040;-82
2022/10/20 06:51:02;;;;;;;13.70;6.93;;;5.60;99.90;;;;;;5024029;28;20068;-82
2022/10/20 06:53:29;;;;;;;10.35;5.32;;;5.80;99.90;;;;;;5008863;28;20033;-81
2022/10/20 06:56:00;;;;;;;11.77;4.95;;;5.90;99.90;;;;;;5010452;28;20038;-82
2022/10/20 06:58:26;;;;;;;15.93;5.03;;;6.10;99.90;;;;;;5015904;28;20006;-82
2022/10/20 07:01:07;;;;;;;9.10;4.38;;;6.40;99.90;;;;;;5015528;28;20064;-82
2022/10/20 07:03:35;;;;;;;11.70;4.63;;;6.60;99.90;;;;;;5032607;28;20076;-82
2022/10/20 07:06:02;;;;;;;8.63;4.15;;;6.80;99.90;;;;;;5032391;28;20053;-82
2022/10/20 07:08:29;;;;;;;8.63;4.05;;;7.20;99.90;;;;;;5030294;28;20450;-82
2022/10/20 07:11:05;;;;;;;11.23;4.25;;;7.50;99.90;;;;;;5028217;28;20030;-81
2022/10/20 07:13:33;;;;;;;14.07;4.13;;;7.90;99.90;;;;;;5032694;28;20029;-80
2022/10/20 07:15:59;;;;;;;11.03;4.03;;;8.30;99.90;;;;;;5030629;28;20029;-81
2022/10/20 07:18:27;;;;;;;7.85;4.57;;;8.70;99.90;;;;;;5014415;28;20021;-80
2022/10/20 07:21:01;;;;;;;9.52;4.65;;;9.00;99.90;;;;;;5032228;28;20045;-81
2022/10/20 07:23:29;;;;;;;11.60;4.82;;;9.30;99.90;;;;;;5032605;28;20029;-81
2022/10/20 07:26:02;;;;;;;14.02;4.45;;;9.70;99.90;;;;;;5033335;28;20029;-81
2022/10/20 07:28:28;;;;;;;13.30;5.75;;;10.10;99.90;;;;;;5003388;28;20479;-83
2022/10/20 07:30:54;;;;;;;7.70;5.13;;;10.60;99.90;;;;;;5002902;28;20022;-80
2022/10/20 07:33:19;;;;;;;14.32;6.22;;;10.80;99.90;;;;;;4998063;28;20053;-85
2022/10/20 07:35:45;;;;;;;9.18;4.88;;;11.30;99.90;;;;;;4998377;28;20022;-84
2022/10/20 07:38:11;;;;;;;11.82;5.53;;;11.80;99.90;;;;;;5014543;28;20096;-84
2022/10/20 07:40:36;;;;;;;8.45;6.13;;;12.00;99.90;;;;;;4997438;28;20029;-83
2022/10/20 07:43:02;;;;;;;6.65;4.88;;;12.50;99.90;;;;;;4997374;28;20018;-83
2022/10/20 07:45:28;;;;;;;14.05;7.05;;;12.80;99.90;;;;;;5014739;28;20032;-84
2022/10/20 07:47:53;;;;;;;9.70;5.57;;;13.10;99.90;;;;;;5017201;28;20076;-84
2022/10/20 07:50:19;;;;;;;10.07;5.07;;;13.40;99.90;;;;;;5003169;28;20018;-84
2022/10/20 07:52:49;;;;;;;7.28;4.55;;;13.60;99.90;;;;;;5002743;28;20075;-84
2022/10/20 07:55:15;;;;;;;12.23;5.18;;;13.70;99.90;;;;;;5019480;28;20022;-84
2022/10/20 07:57:41;;;;;;;9.13;5.28;;;13.90;99.90;;;;;;5001947;28;20026;-83
2022/10/20 08:00:07;;;;;;;6.63;5.03;;;14.00;99.90;;;;;;5001660;28;20026;-84
2022/10/20 08:02:33;;;;;;;8.35;4.55;;;14.50;99.90;;;;;;5000906;28;20018;-84
2022/10/20 08:04:58;;;;;;;12.45;5.25;;;14.90;98.60;;;;;;5018301;28;20068;-84
2022/10/20 08:07:24;;;;;;;12.32;4.85;;;15.10;97.80;;;;;;5018521;28;20029;-84
2022/10/20 08:09:49;;;;;;;13.57;6.45;;;15.30;97.20;;;;;;5001066;28;20065;-84
2022/10/20 08:12:15;;;;;;;9.20;4.50;;;15.50;95.50;;;;;;5000737;28;20065;-84
2022/10/20 08:14:43;;;;;;;11.80;4.43;;;15.80;94.90;;;;;;5000694;28;20026;-85
2022/10/20 08:17:09;;;;;;;7.95;4.45;;;16.00;93.90;;;;;;5000505;28;20026;-83
2022/10/20 08:19:35;;;;;;;9.30;5.20;;;15.80;93.20;;;;;;5000570;28;20032;-85
2022/10/20 08:22:00;;;;;;;8.93;4.80;;;15.80;93.00;;;;;;5000868;28;20026;-87
2022/10/20 08:24:26;;;;;;;11.38;4.28;;;15.70;93.20;;;;;;5000814;28;20021;-84
2022/10/20 08:26:52;;;;;;;8.43;3.83;;;15.80;92.60;;;;;;5017568;28;20026;-84
2022/10/20 08:29:18;;;;;;;5.65;3.97;;;15.70;92.20;;;;;;5000774;28;20022;-84
2022/10/20 08:31:44;;;;;;;8.60;4.50;;;15.90;91.80;;;;;;5018293;28;20021;-85
2022/10/20 08:34:10;;;;;;;6.30;4.28;;;15.20;91.80;;;;;;5017586;28;20121;-84
2022/10/20 08:36:36;;;;;;;3.85;3.50;;;15.40;91.50;;;;;;5000350;28;20029;-84
2022/10/20 08:39:02;;;;;;;7.38;3.53;;;15.30;91.10;;;;;;5000101;28;20092;-82
2022/10/20 08:41:35;;;;;;;6.63;3.20;;;14.90;91.30;;;;;;5017396;28;20014;-84
2022/10/20 08:44:03;;;;;;;5.85;3.20;;;15.30;91.40;;;;;;5017442;28;20076;-84
2022/10/20 08:46:32;;;;;;;8.50;3.42;;;15.30;90.20;;;;;;4999990;28;20022;-83
2022/10/20 08:48:58;;;;;;;5.50;3.78;;;15.40;89.70;;;;;;5017436;28;20030;-85
2022/10/20 08:51:29;;;;;;;4.10;3.10;;;15.50;90.30;;;;;;5017737;28;20026;-85
2022/10/20 08:53:57;;;;;;;8.10;3.72;;;15.70;90.40;;;;;;5017142;28;20101;-85
2022/10/20 08:56:24;;;;;;;8.85;4.13;;;16.30;86.80;;;;;;5000277;28;20053;-85
2022/10/20 08:58:50;;;;;;;6.47;3.58;;;16.80;85.90;;;;;;5017691;28;20095;-85
2022/10/20 09:01:22;;;;;;;5.80;3.70;;;17.10;82.60;;;;;;5000264;28;20022;-85
2022/10/20 09:03:58;;;;;;;6.88;3.47;;;16.80;83.30;;;;;;4999755;28;20034;-84
2022/10/20 09:06:24;;;;;;;10.30;4.05;;;17.20;81.60;;;;;;5017067;28;20053;-85
2022/10/20 09:08:50;;;;;;;4.47;3.75;;;17.00;81.30;;;;;;4999610;28;20061;-84
2022/10/20 09:11:20;;;;;;;4.85;3.55;;;16.70;83.00;;;;;;4999153;28;20026;-80
2022/10/20 09:13:46;;;;;;;9.07;3.72;;;17.30;81.40;;;;;;5016908;28;20458;-86
2022/10/20 09:16:42;;;;;;;4.70;3.63;;;17.20;79.30;;;;;;4999574;28;20084;-88
2022/10/20 09:19:21;;;;;;;6.20;3.15;;;17.30;79.80;;;;;;4983875;28;20033;-81
2022/10/20 09:21:52;;;;;;;5.75;3.28;;;17.50;78.60;;;;;;4999639;28;20028;-89
2022/10/20 09:24:21;;;;;;;5.00;2.92;;;17.50;77.20;;;;;;4999923;28;20029;-90
2022/10/20 09:26:48;;;;;;;9.38;3.10;;;17.40;76.10;;;;;;4999146;28;20370;-82
2022/10/20 09:29:32;;;;;;;3.50;3.00;;;17.70;75.90;;;;;;4998851;28;20414;-82
2022/10/20 09:31:58;;;;;;;6.38;2.60;;;17.40;75.50;;;;;;4998941;28;20026;-83
2022/10/20 09:34:32;;;;;;;7.75;3.17;;;17.30;76.10;;;;;;5016565;28;20057;-83
2022/10/20 09:37:03;;;;;;;4.75;3.13;;;17.80;75.50;;;;;;4998708;28;20026;-83
2022/10/20 09:39:32;;;;;;;4.28;3.22;;;17.50;74.40;;;;;;5016261;28;20080;-83
2022/10/20 09:41:59;;;;;;;;;;;17.70;73.00;;;;;;5016728;28;20430;-84
2022/10/20 09:44:25;;;;;;;8.65;3.55;;;17.60;74.60;;;;;;5016166;28;19908;-82
2022/10/20 09:46:53;;;;;;;5.18;2.90;;;18.30;73.30;;;;;;4998806;28;20030;-83
2022/10/20 09:49:28;;;;;;;4.50;2.88;;;18.30;71.20;;;;;;5016140;28;20026;-83
2022/10/20 09:51:54;;;;;;;4.63;3.00;;;18.10;71.60;;;;;;4998951;28;20584;-82
2022/10/20 09:54:22;;;;;;;7.00;2.95;;;18.50;70.30;;;;;;5015780;28;20473;-82
2022/10/20 09:56:48;;;;;;;12.05;3.42;;;18.40;70.40;;;;;;5015882;28;20026;-83
2022/10/20 09:59:36;;;;;;;3.63;2.60;;;17.70;71.80;;;;;;5015753;28;20473;-83
2022/10/20 10:02:24;;;;;;;5.22;2.58;;;17.90;71.30;;;;;;5016033;28;20029;-83
2022/10/20 10:04:52;;;;;;;4.15;2.88;;;18.50;70.10;;;;;;4998171;28;20054;-82
2022/10/20 10:07:26;;;;;;;6.15;2.47;;;18.80;69.80;;;;;;5015703;28;20034;-82
2022/10/20 10:09:56;;;;;;;6.25;2.70;;;19.50;67.40;;;;;;4997698;28;20022;-82
2022/10/20 10:12:23;;;;;;;4.53;2.40;;;19.90;65.60;;;;;;4998361;28;20040;-82
2022/10/20 10:15:06;;;;;;;6.90;2.65;;;20.10;63.60;;;;;;4998360;28;20116;-83
2022/10/20 10:17:42;;;;;;;6.55;2.70;;;19.10;63.70;;;;;;5015431;28;20466;-84
2022/10/20 10:20:11;;;;;;;5.18;2.20;;;18.20;67.70;;;;;;4998293;28;20072;-80
2022/10/20 10:22:37;;;;;;;;;;;18.30;67.60;;;;;;5015588;28;20362;-80
2022/10/20 10:25:04;;;;;;;8.93;3.83;;;18.50;66.90;;;;;;5014904;28;19906;-79
2022/10/20 10:27:35;;;;;;;4.43;2.72;;;17.80;68.70;;;;;;5015032;28;20427;-79
2022/10/20 10:30:28;;;;;;;6.45;2.60;;;17.40;69.30;;;;;;5014910;28;20032;-79
2022/10/20 10:32:54;;;;;;;3.60;2.05;;;16.90;71.80;;;;;;5014850;28;20427;-80
2022/10/20 10:35:38;;;;;;;3.85;2.40;;;17.50;70.20;;;;;;4997265;28;20022;-79
2022/10/20 10:38:05;;;;;;;5.50;2.42;;;17.20;70.40;;;;;;5014682;28;20462;-78
2022/10/20 10:40:36;;;;;;;2.83;2.08;;;16.90;71.90;;;;;;5014907;28;20025;-79
2022/10/20 10:43:23;;;;;;;3.17;2.30;;;17.40;70.90;;;;;;5014863;28;20524;-77
2022/10/20 10:45:56;;;;;;;8.07;3.03;;;17.80;70.50;;;;;;4997127;28;20036;-80
2022/10/20 10:48:44;;;;;;;4.03;2.60;;;18.70;67.70;;;;;;5014706;28;20111;-79
2022/10/20 10:51:19;;;;;;;6.03;2.75;;;19.10;66.40;;;;;;4997839;28;20365;-83
2022/10/20 10:54:00;;;;;;;3.45;2.63;;;18.60;67.30;;;;;;4997119;28;20026;-78
2022/10/20 10:56:35;;;;;;;4.95;2.40;;;18.40;68.30;;;;;;5014972;28;20026;-82
2022/10/20 10:59:04;;;;;;;6.78;2.70;;;18.60;68.40;;;;;;4997390;28;20455;-79
2022/10/20 11:02:03;;;;;;;5.63;2.30;;;19.80;66.90;;;;;;4996767;28;20021;-79
2022/10/20 11:05:01;;;;;;;4.40;2.58;;;20.40;64.20;;;;;;4997316;28;20029;-80
2022/10/20 11:07:40;;;;;;;3.67;1.90;;;20.00;63.90;;;;;;5014825;28;20030;-77
2022/10/20 11:10:27;;;;;;;4.60;2.30;;;20.40;64.30;;;;;;4997968;28;20026;-78
2022/10/20 11:13:02;;;;;;;3.08;2.78;;;21.30;61.70;;;;;;4996578;28;20018;-75
2022/10/20 11:15:47;;;;;;;4.30;2.45;;;20.40;62.00;;;;;;4996663;28;20342;-79
2022/10/20 11:18:39;;;;;;;4.35;2.55;;;20.50;63.20;;;;;;4996591;28;20476;-78
2022/10/20 11:21:34;;;;;;;4.18;2.42;;;20.40;62.30;;;;;;5014116;28;20022;-77
2022/10/20 11:24:09;;;;;;;7.03;2.40;;;20.20;63.40;;;;;;5018281;28;20072;-77
2022/10/20 11:26:44;;;;;;;3.85;2.45;;;20.30;63.10;;;;;;5017542;28;20343;-77
2022/10/20 11:29:35;;;;;;;4.22;2.53;;;20.70;62.10;;;;;;5017919;28;20021;-78
2022/10/20 11:32:10;;;;;;;3.33;2.20;;;20.60;61.70;;;;;;5000238;28;20029;-78
2022/10/20 11:35:04;;;;;;;4.85;2.20;;;21.40;60.60;;;;;;5017566;28;20034;-76
2022/10/20 11:37:36;;;;;;;4.57;2.40;;;22.40;58.50;;;;;;5018222;28;20030;-75
2022/10/20 11:40:18;;;;;;;4.40;2.97;;;22.40;56.60;;;;;;5000791;28;20167;-77
2022/10/20 11:43:03;;;;;;;5.40;2.47;;;20.80;58.10;;;;;;5018067;28;20018;-77
2022/10/20 11:45:53;;;;;;;4.97;2.50;;;20.10;60.40;;;;;;5000209;28;20030;-76
2022/10/20 11:48:22;;;;;;;6.15;2.38;;;20.00;60.90;;;;;;4999863;28;20503;-77
2022/10/20 11:50:57;;;;;;;5.03;2.13;;;20.30;62.20;;;;;;5000084;28;20025;-78
2022/10/20 11:53:35;;;;;;;4.43;2.15;;;22.00;59.00;;;;;;5017830;28;20105;-78
2022/10/20 11:56:17;;;;;;;3.40;2.35;;;21.60;58.30;;;;;;5017605;28;20025;-76
2022/10/20 11:59:15;;;;;;;3.40;2.35;;;19.90;61.30;;;;;;5017714;28;20026;-78
2022/10/20 12:02:02;;;;;;;6.13;2.15;;;20.70;60.90;;;;;;5000449;28;20022;-76
2022/10/20 12:04:49;;;;;;;5.15;2.63;;;21.50;59.40;;;;;;5018231;28;20025;-75
2022/10/20 12:07:14;;;;;;;7.43;2.30;;;21.20;58.80;;;;;;5018790;28;20029;-80
2022/10/20 12:10:25;;;;;;;3.78;2.40;;;21.20;58.50;;;;;;5000331;28;20121;-76
2022/10/20 12:13:33;;;;;;;3.45;2.45;;;21.00;59.30;;;;;;5013254;28;20120;-76
2022/10/20 12:15:59;;;;;;;29.20;3.70;;;20.30;60.20;;;;;;5017141;28;20052;-76
2022/10/20 12:18:35;;;;;;;5.07;2.63;;;20.60;60.70;;;;;;5017047;28;20474;-77
2022/10/20 12:21:03;;;;;;;5.70;2.42;;;20.10;61.70;;;;;;5017104;28;20025;-76
2022/10/20 12:23:44;;;;;;;8.75;2.53;;;20.00;61.40;;;;;;5017180;28;20018;-77
2022/10/20 12:26:28;;;;;;;6.30;2.50;;;19.60;62.40;;;;;;4999331;28;20030;-77
2022/10/20 12:29:31;;;;;;;11.48;2.15;;;18.80;64.50;;;;;;5016847;28;20022;-75
2022/10/20 12:32:23;;;;;;;4.28;2.58;;;18.90;65.60;;;;;;5016753;28;20033;-76
2022/10/20 12:34:56;;;;;;;7.50;2.28;;;18.60;64.80;;;;;;4998792;28;20425;-75
2022/10/20 12:37:25;;;;;;;5.38;2.00;;;18.90;66.30;;;;;;5016697;28;20050;-75
2022/10/20 12:39:52;;;;;;;5.13;2.30;;;19.50;64.40;;;;;;5016417;28;20573;-75
2022/10/20 12:42:27;;;;;;;3.95;2.35;;;19.80;64.20;;;;;;4998986;28;20080;-75
2022/10/20 12:44:54;;;;;;;5.60;2.17;;;19.60;63.00;;;;;;5016274;28;20417;-75
2022/10/20 12:47:26;;;;;;;8.65;1.92;;;19.30;64.10;;;;;;5016525;28;20057;-75
2022/10/20 12:49:52;;;;;;;5.70;2.38;;;19.50;64.90;;;;;;5016791;28;20092;-75
2022/10/20 12:52:22;;;;;;;8.90;2.47;;;19.40;64.40;;;;;;5016441;28;20454;-75
2022/10/20 12:54:56;;;;;;;5.38;2.50;;;19.10;64.80;;;;;;4998748;28;20026;-75
2022/10/20 12:57:40;;;;;;;3.15;2.05;;;18.80;65.40;;;;;;4998151;28;20021;-74
2022/10/20 13:00:27;;;;;;;4.43;2.58;;;18.90;65.80;;;;;;4998741;28;20113;-74
2022/10/20 13:02:57;;;;;;;7.05;2.75;;;19.10;65.10;;;;;;4978511;28;20030;-75
2022/10/20 13:05:42;;;;;;;6.68;2.30;;;18.80;66.30;;;;;;5015766;28;20405;-75
2022/10/20 13:08:27;;;;;;;8.68;1.98;;;18.60;66.20;;;;;;5016239;28;20076;-76
2022/10/20 13:10:53;;;;;;;7.82;2.00;;;18.50;66.90;;;;;;5015891;28;20013;-76
2022/10/20 13:13:19;;;;;;;6.63;1.85;;;18.60;67.30;;;;;;4998872;28;20433;-75
2022/10/20 13:15:46;;;;;;;5.88;1.90;;;18.90;67.00;;;;;;5016166;28;20101;-77
2022/10/20 13:18:11;;;;;;;3.65;1.98;;;19.60;66.20;;;;;;4998425;28;20112;-76
2022/10/20 13:21:01;;;;;;;2.83;1.92;;;20.00;63.60;;;;;;4998392;28;20076;-77
2022/10/20 13:23:45;;;;;;;4.40;1.80;;;19.40;64.80;;;;;;4998914;28;20028;-64
2022/10/20 13:26:22;;;;;;;4.25;1.50;;;19.00;67.90;;;;;;4998094;28;20026;-63
2022/10/20 13:28:50;;;;;;;5.63;1.65;;;19.50;72.80;;;;;;4998465;28;20021;-63
2022/10/20 13:31:38;;;;;;;6.07;2.35;;;20.00;65.40;;;;;;5015601;28;20076;-65
2022/10/20 13:34:25;;;;;;;2.85;2.10;;;20.30;71.90;;;;;;5015890;28;20042;-64
2022/10/20 13:37:11;;;;;;;4.72;2.35;;;20.30;63.60;;;;;;5015590;28;20065;-64
2022/10/20 13:39:55;;;;;;;5.55;2.20;;;20.40;64.20;;;;;;5015233;28;20026;-74
2022/10/20 13:42:35;;;;;;;7.68;2.33;;;20.40;63.40;;;;;;5015311;28;20097;-73
2022/10/20 13:45:28;;;;;;;4.38;1.63;;;19.60;62.90;;;;;;4996761;28;20022;-74
2022/10/20 13:48:07;;;;;;;7.60;2.00;;;19.40;65.50;;;;;;5014906;28;20021;-75
2022/10/20 13:50:48;;;;;;;6.78;2.15;;;19.70;64.70;;;;;;5015546;28;20025;-74
2022/10/20 13:53:21;;;;;;;4.03;2.03;;;19.00;65.80;;;;;;5014941;28;20088;-74